sensor_id;sensor_type;location;lat;lon;timestamp;P1;durP1;ratioP1;P2;durP2;ratioP2
8151;SDS011;4117;53.622;9.958;2022-09-09T00:00:53;3.07;;;1.37;;
8151;SDS011;4117;53.622;9.958;2022-09-09T00:03:25;2.57;;;1.37;;
8151;SDS011;4117;53.622;9.958;2022-09-09T00:05:58;4.07;;;1.63;;
8151;SDS011;4117;53.622;9.958;2022-09-09T00:08:32;3.93;;;1.70;;
8151;SDS011;4117;53.622;9.958;2022-09-09T00:11:07;2.60;;;1.50;;
8151;SDS011;4117;53.622;9.958;2022-09-09T00:13:39;3.03;;;1.90;;
8151;SDS011;4117;53.622;9.958;2022-09-09T00:16:14;2.50;;;1.53;;
8151;SDS011;4117;53.622;9.958;2022-09-09T00:18:47;2.63;;;1.60;;
8151;SDS011;4117;53.622;9.958;2022-09-09T00:21:24;2.93;;;1.53;;
8151;SDS011;4117;53.622;9.958;2022-09-09T00:23:57;2.67;;;1.50;;
8151;SDS011;4117;53.622;9.958;2022-09-09T00:26:26;1.70;;;1.50;;
8151;SDS011;4117;53.622;9.958;2022-09-09T00:29:00;3.30;;;1.70;;
8151;SDS011;4117;53.622;9.958;2022-09-09T00:31:31;2.20;;;1.40;;
8151;SDS011;4117;53.622;9.958;2022-09-09T00:34:00;2.93;;;1.60;;
8151;SDS011;4117;53.622;9.958;2022-09-09T00:36:32;5.10;;;1.90;;
8151;SDS011;4117;53.622;9.958;2022-09-09T00:39:02;2.53;;;1.60;;
8151;SDS011;4117;53.622;9.958;2022-09-09T00:41:32;2.60;;;1.30;;
8151;SDS011;4117;53.622;9.958;2022-09-09T00:44:20;3.63;;;1.43;;
8151;SDS011;4117;53.622;9.958;2022-09-09T00:47:09;2.60;;;1.40;;
8151;SDS011;4117;53.622;9.958;2022-09-09T00:49:49;2.50;;;1.57;;
8151;SDS011;4117;53.622;9.958;2022-09-09T00:52:30;2.30;;;1.50;;
8151;SDS011;4117;53.622;9.958;2022-09-09T00:55:04;2.60;;;1.53;;
8151;SDS011;4117;53.622;9.958;2022-09-09T00:57:38;4.83;;;1.97;;
8151;SDS011;4117;53.622;9.958;2022-09-09T01:00:22;7.63;;;2.17;;
8151;SDS011;4117;53.622;9.958;2022-09-09T01:02:59;4.53;;;2.00;;
8151;SDS011;4117;53.622;9.958;2022-09-09T01:05:39;3.00;;;1.70;;
8151;SDS011;4117;53.622;9.958;2022-09-09T01:08:14;2.27;;;1.30;;
8151;SDS011;4117;53.622;9.958;2022-09-09T01:10:53;3.93;;;1.73;;
8151;SDS011;4117;53.622;9.958;2022-09-09T01:13:22;4.57;;;1.93;;
8151;SDS011;4117;53.622;9.958;2022-09-09T01:15:51;4.13;;;1.90;;
8151;SDS011;4117;53.622;9.958;2022-09-09T01:18:20;4.67;;;1.70;;
8151;SDS011;4117;53.622;9.958;2022-09-09T01:20:53;3.73;;;1.63;;
8151;SDS011;4117;53.622;9.958;2022-09-09T01:23:45;2.67;;;1.80;;
8151;SDS011;4117;53.622;9.958;2022-09-09T01:26:29;3.00;;;1.67;;
8151;SDS011;4117;53.622;9.958;2022-09-09T01:28:59;2.43;;;1.60;;
8151;SDS011;4117;53.622;9.958;2022-09-09T01:31:26;4.40;;;2.23;;
8151;SDS011;4117;53.622;9.958;2022-09-09T01:33:56;11.27;;;2.43;;
8151;SDS011;4117;53.622;9.958;2022-09-09T01:36:25;4.40;;;2.00;;
8151;SDS011;4117;53.622;9.958;2022-09-09T01:38:56;1.77;;;1.50;;
8151;SDS011;4117;53.622;9.958;2022-09-09T01:41:23;2.83;;;1.57;;
8151;SDS011;4117;53.622;9.958;2022-09-09T01:43:52;4.67;;;2.00;;
8151;SDS011;4117;53.622;9.958;2022-09-09T01:46:20;2.93;;;1.90;;
8151;SDS011;4117;53.622;9.958;2022-09-09T01:48:48;2.80;;;1.50;;
8151;SDS011;4117;53.622;9.958;2022-09-09T01:51:16;2.83;;;1.63;;
8151;SDS011;4117;53.622;9.958;2022-09-09T01:53:43;2.10;;;1.57;;
8151;SDS011;4117;53.622;9.958;2022-09-09T01:56:16;2.53;;;1.53;;
8151;SDS011;4117;53.622;9.958;2022-09-09T01:59:03;2.27;;;1.60;;
8151;SDS011;4117;53.622;9.958;2022-09-09T02:01:42;6.13;;;2.07;;
8151;SDS011;4117;53.622;9.958;2022-09-09T02:04:21;8.60;;;1.87;;
8151;SDS011;4117;53.622;9.958;2022-09-09T02:06:58;2.10;;;1.30;;
8151;SDS011;4117;53.622;9.958;2022-09-09T02:09:26;3.47;;;1.90;;
8151;SDS011;4117;53.622;9.958;2022-09-09T02:11:57;4.60;;;1.30;;
8151;SDS011;4117;53.622;9.958;2022-09-09T02:14:30;1.80;;;1.10;;
8151;SDS011;4117;53.622;9.958;2022-09-09T02:17:01;3.13;;;1.50;;
8151;SDS011;4117;53.622;9.958;2022-09-09T02:19:34;2.87;;;2.03;;
8151;SDS011;4117;53.622;9.958;2022-09-09T02:22:05;3.73;;;2.17;;
8151;SDS011;4117;53.622;9.958;2022-09-09T02:24:33;2.93;;;1.40;;
8151;SDS011;4117;53.622;9.958;2022-09-09T02:27:03;3.67;;;1.83;;
8151;SDS011;4117;53.622;9.958;2022-09-09T02:29:36;2.10;;;1.50;;
8151;SDS011;4117;53.622;9.958;2022-09-09T02:32:06;2.37;;;1.33;;
8151;SDS011;4117;53.622;9.958;2022-09-09T02:34:36;3.17;;;1.30;;
8151;SDS011;4117;53.622;9.958;2022-09-09T02:37:06;2.87;;;1.70;;
8151;SDS011;4117;53.622;9.958;2022-09-09T02:39:35;1.60;;;1.10;;
8151;SDS011;4117;53.622;9.958;2022-09-09T02:42:03;2.50;;;1.73;;
8151;SDS011;4117;53.622;9.958;2022-09-09T02:44:30;1.80;;;1.20;;
8151;SDS011;4117;53.622;9.958;2022-09-09T02:47:11;2.17;;;1.50;;
8151;SDS011;4117;53.622;9.958;2022-09-09T02:49:48;2.63;;;1.20;;
8151;SDS011;4117;53.622;9.958;2022-09-09T02:52:26;2.07;;;1.40;;
8151;SDS011;4117;53.622;9.958;2022-09-09T02:55:06;2.17;;;1.23;;
8151;SDS011;4117;53.622;9.958;2022-09-09T02:57:42;2.80;;;1.50;;
8151;SDS011;4117;53.622;9.958;2022-09-09T03:00:12;3.30;;;1.43;;
8151;SDS011;4117;53.622;9.958;2022-09-09T03:02:41;1.70;;;1.30;;
8151;SDS011;4117;53.622;9.958;2022-09-09T03:05:08;2.10;;;1.37;;
8151;SDS011;4117;53.622;9.958;2022-09-09T03:07:34;3.47;;;1.50;;
8151;SDS011;4117;53.622;9.958;2022-09-09T03:10:02;1.93;;;1.10;;
8151;SDS011;4117;53.622;9.958;2022-09-09T03:12:29;1.90;;;1.33;;
8151;SDS011;4117;53.622;9.958;2022-09-09T03:14:56;1.80;;;1.20;;
8151;SDS011;4117;53.622;9.958;2022-09-09T03:17:23;2.20;;;1.27;;
8151;SDS011;4117;53.622;9.958;2022-09-09T03:19:51;1.67;;;1.27;;
8151;SDS011;4117;53.622;9.958;2022-09-09T03:22:19;1.27;;;1.03;;
8151;SDS011;4117;53.622;9.958;2022-09-09T03:24:46;1.23;;;1.13;;
8151;SDS011;4117;53.622;9.958;2022-09-09T03:27:13;2.50;;;1.10;;
8151;SDS011;4117;53.622;9.958;2022-09-09T03:29:40;2.60;;;1.40;;
8151;SDS011;4117;53.622;9.958;2022-09-09T03:32:07;3.33;;;1.23;;
8151;SDS011;4117;53.622;9.958;2022-09-09T03:34:35;1.20;;;0.80;;
8151;SDS011;4117;53.622;9.958;2022-09-09T03:37:06;1.60;;;1.17;;
8151;SDS011;4117;53.622;9.958;2022-09-09T03:39:33;1.33;;;0.87;;
8151;SDS011;4117;53.622;9.958;2022-09-09T03:42:00;1.47;;;1.00;;
8151;SDS011;4117;53.622;9.958;2022-09-09T03:44:29;2.00;;;1.10;;
8151;SDS011;4117;53.622;9.958;2022-09-09T03:46:56;0.73;;;0.73;;
8151;SDS011;4117;53.622;9.958;2022-09-09T03:49:25;1.17;;;0.93;;
8151;SDS011;4117;53.622;9.958;2022-09-09T03:51:53;1.13;;;0.70;;
8151;SDS011;4117;53.622;9.958;2022-09-09T03:54:22;3.93;;;1.50;;
8151;SDS011;4117;53.622;9.958;2022-09-09T03:56:49;1.90;;;1.00;;
8151;SDS011;4117;53.622;9.958;2022-09-09T03:59:16;1.47;;;0.97;;
8151;SDS011;4117;53.622;9.958;2022-09-09T04:01:43;1.43;;;1.10;;
8151;SDS011;4117;53.622;9.958;2022-09-09T04:04:10;1.97;;;1.07;;
8151;SDS011;4117;53.622;9.958;2022-09-09T04:06:37;1.53;;;1.13;;
8151;SDS011;4117;53.622;9.958;2022-09-09T04:09:04;4.40;;;1.33;;
8151;SDS011;4117;53.622;9.958;2022-09-09T04:11:32;0.77;;;0.70;;
8151;SDS011;4117;53.622;9.958;2022-09-09T04:13:59;2.07;;;1.27;;
8151;SDS011;4117;53.622;9.958;2022-09-09T04:16:25;1.13;;;0.97;;
8151;SDS011;4117;53.622;9.958;2022-09-09T04:18:52;1.47;;;0.90;;
8151;SDS011;4117;53.622;9.958;2022-09-09T04:21:21;3.23;;;1.33;;
8151;SDS011;4117;53.622;9.958;2022-09-09T04:23:48;2.47;;;0.90;;
8151;SDS011;4117;53.622;9.958;2022-09-09T04:26:15;1.57;;;1.00;;
8151;SDS011;4117;53.622;9.958;2022-09-09T04:28:43;1.10;;;0.87;;
8151;SDS011;4117;53.622;9.958;2022-09-09T04:31:10;2.23;;;1.00;;
8151;SDS011;4117;53.622;9.958;2022-09-09T04:33:41;2.17;;;0.90;;
8151;SDS011;4117;53.622;9.958;2022-09-09T04:36:07;1.27;;;1.00;;
8151;SDS011;4117;53.622;9.958;2022-09-09T04:38:34;1.10;;;0.80;;
8151;SDS011;4117;53.622;9.958;2022-09-09T04:41:02;1.53;;;0.80;;
8151;SDS011;4117;53.622;9.958;2022-09-09T04:43:28;1.23;;;1.00;;
8151;SDS011;4117;53.622;9.958;2022-09-09T04:45:57;1.27;;;0.87;;
8151;SDS011;4117;53.622;9.958;2022-09-09T04:48:24;2.23;;;1.13;;
8151;SDS011;4117;53.622;9.958;2022-09-09T04:50:54;1.57;;;1.03;;
8151;SDS011;4117;53.622;9.958;2022-09-09T04:53:22;1.67;;;0.90;;
8151;SDS011;4117;53.622;9.958;2022-09-09T04:55:50;1.27;;;0.80;;
8151;SDS011;4117;53.622;9.958;2022-09-09T04:58:17;2.13;;;0.93;;
8151;SDS011;4117;53.622;9.958;2022-09-09T05:00:46;1.80;;;1.07;;
8151;SDS011;4117;53.622;9.958;2022-09-09T05:03:14;1.73;;;1.00;;
8151;SDS011;4117;53.622;9.958;2022-09-09T05:05:41;1.80;;;1.13;;
8151;SDS011;4117;53.622;9.958;2022-09-09T05:08:09;1.00;;;0.90;;
8151;SDS011;4117;53.622;9.958;2022-09-09T05:10:37;1.80;;;1.20;;
8151;SDS011;4117;53.622;9.958;2022-09-09T05:13:06;2.00;;;1.33;;
8151;SDS011;4117;53.622;9.958;2022-09-09T05:15:33;3.57;;;1.50;;
8151;SDS011;4117;53.622;9.958;2022-09-09T05:18:01;1.17;;;1.07;;
8151;SDS011;4117;53.622;9.958;2022-09-09T05:20:29;1.60;;;1.10;;
8151;SDS011;4117;53.622;9.958;2022-09-09T05:22:57;1.27;;;1.10;;
8151;SDS011;4117;53.622;9.958;2022-09-09T05:25:24;1.83;;;1.30;;
8151;SDS011;4117;53.622;9.958;2022-09-09T05:27:51;2.13;;;1.40;;
8151;SDS011;4117;53.622;9.958;2022-09-09T05:30:19;1.80;;;1.10;;
8151;SDS011;4117;53.622;9.958;2022-09-09T05:32:47;1.33;;;0.97;;
8151;SDS011;4117;53.622;9.958;2022-09-09T05:35:14;1.47;;;1.00;;
8151;SDS011;4117;53.622;9.958;2022-09-09T05:37:42;1.47;;;1.00;;
8151;SDS011;4117;53.622;9.958;2022-09-09T05:40:11;3.47;;;1.00;;
8151;SDS011;4117;53.622;9.958;2022-09-09T05:42:37;1.03;;;0.97;;
8151;SDS011;4117;53.622;9.958;2022-09-09T05:45:05;0.73;;;0.70;;
8151;SDS011;4117;53.622;9.958;2022-09-09T05:47:33;1.33;;;0.70;;
8151;SDS011;4117;53.622;9.958;2022-09-09T05:50:02;2.60;;;1.30;;
8151;SDS011;4117;53.622;9.958;2022-09-09T05:52:30;0.93;;;0.80;;
8151;SDS011;4117;53.622;9.958;2022-09-09T05:54:58;1.43;;;1.03;;
8151;SDS011;4117;53.622;9.958;2022-09-09T05:57:25;1.03;;;0.87;;
8151;SDS011;4117;53.622;9.958;2022-09-09T05:59:51;1.57;;;1.00;;
8151;SDS011;4117;53.622;9.958;2022-09-09T06:02:18;1.27;;;1.00;;
8151;SDS011;4117;53.622;9.958;2022-09-09T06:04:45;1.00;;;0.90;;
8151;SDS011;4117;53.622;9.958;2022-09-09T06:07:12;3.43;;;1.00;;
8151;SDS011;4117;53.622;9.958;2022-09-09T06:09:39;1.40;;;1.00;;
8151;SDS011;4117;53.622;9.958;2022-09-09T06:12:08;1.20;;;1.10;;
8151;SDS011;4117;53.622;9.958;2022-09-09T06:14:35;1.30;;;1.00;;
8151;SDS011;4117;53.622;9.958;2022-09-09T06:17:02;1.97;;;1.20;;
8151;SDS011;4117;53.622;9.958;2022-09-09T06:19:28;1.27;;;1.00;;
8151;SDS011;4117;53.622;9.958;2022-09-09T06:21:55;2.37;;;0.97;;
8151;SDS011;4117;53.622;9.958;2022-09-09T06:24:22;0.90;;;0.73;;
8151;SDS011;4117;53.622;9.958;2022-09-09T06:26:49;1.47;;;1.20;;
8151;SDS011;4117;53.622;9.958;2022-09-09T06:29:17;2.03;;;1.10;;
8151;SDS011;4117;53.622;9.958;2022-09-09T06:31:44;1.17;;;1.00;;
8151;SDS011;4117;53.622;9.958;2022-09-09T06:34:11;1.40;;;1.07;;
8151;SDS011;4117;53.622;9.958;2022-09-09T06:36:38;1.53;;;0.80;;
8151;SDS011;4117;53.622;9.958;2022-09-09T06:39:05;2.40;;;1.00;;
8151;SDS011;4117;53.622;9.958;2022-09-09T06:41:33;1.13;;;1.03;;
8151;SDS011;4117;53.622;9.958;2022-09-09T06:44:00;1.13;;;1.00;;
8151;SDS011;4117;53.622;9.958;2022-09-09T06:46:30;1.73;;;1.00;;
8151;SDS011;4117;53.622;9.958;2022-09-09T06:48:58;4.23;;;0.90;;
8151;SDS011;4117;53.622;9.958;2022-09-09T06:51:26;1.33;;;0.97;;
8151;SDS011;4117;53.622;9.958;2022-09-09T06:53:55;1.20;;;1.10;;
8151;SDS011;4117;53.622;9.958;2022-09-09T06:56:24;0.80;;;0.70;;
8151;SDS011;4117;53.622;9.958;2022-09-09T06:58:53;0.90;;;0.80;;
8151;SDS011;4117;53.622;9.958;2022-09-09T07:01:21;1.20;;;0.77;;
8151;SDS011;4117;53.622;9.958;2022-09-09T07:03:51;0.97;;;0.77;;
8151;SDS011;4117;53.622;9.958;2022-09-09T07:06:20;0.87;;;0.70;;
8151;SDS011;4117;53.622;9.958;2022-09-09T07:08:49;2.50;;;0.87;;
8151;SDS011;4117;53.622;9.958;2022-09-09T07:11:18;1.07;;;0.97;;
8151;SDS011;4117;53.622;9.958;2022-09-09T07:13:46;1.10;;;0.87;;
8151;SDS011;4117;53.622;9.958;2022-09-09T07:16:14;1.23;;;1.03;;
8151;SDS011;4117;53.622;9.958;2022-09-09T07:18:43;2.43;;;0.93;;
8151;SDS011;4117;53.622;9.958;2022-09-09T07:21:11;0.80;;;0.80;;
8151;SDS011;4117;53.622;9.958;2022-09-09T07:23:39;0.80;;;0.80;;
8151;SDS011;4117;53.622;9.958;2022-09-09T07:26:07;2.00;;;1.00;;
8151;SDS011;4117;53.622;9.958;2022-09-09T07:28:36;1.37;;;1.07;;
8151;SDS011;4117;53.622;9.958;2022-09-09T07:31:04;0.70;;;0.67;;
8151;SDS011;4117;53.622;9.958;2022-09-09T07:33:32;0.93;;;0.80;;
8151;SDS011;4117;53.622;9.958;2022-09-09T07:36:04;1.53;;;0.90;;
8151;SDS011;4117;53.622;9.958;2022-09-09T07:38:38;0.70;;;0.50;;
8151;SDS011;4117;53.622;9.958;2022-09-09T07:41:06;1.20;;;0.90;;
8151;SDS011;4117;53.622;9.958;2022-09-09T07:43:37;0.83;;;0.73;;
8151;SDS011;4117;53.622;9.958;2022-09-09T07:46:04;2.20;;;0.87;;
8151;SDS011;4117;53.622;9.958;2022-09-09T07:48:32;1.63;;;1.10;;
8151;SDS011;4117;53.622;9.958;2022-09-09T07:51:03;0.73;;;0.73;;
8151;SDS011;4117;53.622;9.958;2022-09-09T07:53:32;0.63;;;0.63;;
8151;SDS011;4117;53.622;9.958;2022-09-09T07:56:03;0.70;;;0.70;;
8151;SDS011;4117;53.622;9.958;2022-09-09T07:58:31;0.60;;;0.60;;
8151;SDS011;4117;53.622;9.958;2022-09-09T08:00:58;0.47;;;0.40;;
8151;SDS011;4117;53.622;9.958;2022-09-09T08:03:24;2.37;;;0.57;;
8151;SDS011;4117;53.622;9.958;2022-09-09T08:05:51;0.63;;;0.63;;
8151;SDS011;4117;53.622;9.958;2022-09-09T08:08:18;0.20;;;0.20;;
8151;SDS011;4117;53.622;9.958;2022-09-09T08:10:45;0.97;;;0.60;;
8151;SDS011;4117;53.622;9.958;2022-09-09T08:13:13;0.50;;;0.50;;
8151;SDS011;4117;53.622;9.958;2022-09-09T08:15:40;0.93;;;0.53;;
8151;SDS011;4117;53.622;9.958;2022-09-09T08:18:08;0.60;;;0.60;;
8151;SDS011;4117;53.622;9.958;2022-09-09T08:20:35;1.50;;;0.70;;
8151;SDS011;4117;53.622;9.958;2022-09-09T08:23:02;0.80;;;0.57;;
8151;SDS011;4117;53.622;9.958;2022-09-09T08:25:30;0.70;;;0.60;;
8151;SDS011;4117;53.622;9.958;2022-09-09T08:27:56;0.40;;;0.40;;
8151;SDS011;4117;53.622;9.958;2022-09-09T08:30:24;0.83;;;0.60;;
8151;SDS011;4117;53.622;9.958;2022-09-09T08:32:51;0.63;;;0.57;;
8151;SDS011;4117;53.622;9.958;2022-09-09T08:35:18;1.23;;;0.83;;
8151;SDS011;4117;53.622;9.958;2022-09-09T08:37:45;1.93;;;0.80;;
8151;SDS011;4117;53.622;9.958;2022-09-09T08:40:13;0.43;;;0.43;;
8151;SDS011;4117;53.622;9.958;2022-09-09T08:42:48;2.10;;;0.50;;
8151;SDS011;4117;53.622;9.958;2022-09-09T08:45:19;6.07;;;0.87;;
8151;SDS011;4117;53.622;9.958;2022-09-09T08:48:11;0.70;;;0.67;;
8151;SDS011;4117;53.622;9.958;2022-09-09T08:50:45;0.60;;;0.60;;
8151;SDS011;4117;53.622;9.958;2022-09-09T08:53:17;0.30;;;0.30;;
8151;SDS011;4117;53.622;9.958;2022-09-09T08:55:48;4.13;;;0.90;;
8151;SDS011;4117;53.622;9.958;2022-09-09T08:58:18;0.40;;;0.40;;
8151;SDS011;4117;53.622;9.958;2022-09-09T09:00:56;0.77;;;0.77;;
8151;SDS011;4117;53.622;9.958;2022-09-09T09:03:53;0.73;;;0.70;;
8151;SDS011;4117;53.622;9.958;2022-09-09T09:06:31;0.67;;;0.47;;
8151;SDS011;4117;53.622;9.958;2022-09-09T09:09:07;2.73;;;1.17;;
8151;SDS011;4117;53.622;9.958;2022-09-09T09:11:43;1.07;;;0.57;;
8151;SDS011;4117;53.622;9.958;2022-09-09T09:14:14;1.13;;;0.77;;
8151;SDS011;4117;53.622;9.958;2022-09-09T09:16:51;0.40;;;0.40;;
8151;SDS011;4117;53.622;9.958;2022-09-09T09:19:20;0.90;;;0.53;;
8151;SDS011;4117;53.622;9.958;2022-09-09T09:21:48;0.50;;;0.50;;
8151;SDS011;4117;53.622;9.958;2022-09-09T09:24:20;0.60;;;0.57;;
8151;SDS011;4117;53.622;9.958;2022-09-09T09:26:49;0.70;;;0.63;;
8151;SDS011;4117;53.622;9.958;2022-09-09T09:29:18;0.37;;;0.37;;
8151;SDS011;4117;53.622;9.958;2022-09-09T09:31:47;0.30;;;0.30;;
8151;SDS011;4117;53.622;9.958;2022-09-09T09:34:17;0.67;;;0.40;;
8151;SDS011;4117;53.622;9.958;2022-09-09T09:36:45;0.60;;;0.47;;
8151;SDS011;4117;53.622;9.958;2022-09-09T09:39:23;0.60;;;0.60;;
8151;SDS011;4117;53.622;9.958;2022-09-09T09:41:51;0.67;;;0.67;;
8151;SDS011;4117;53.622;9.958;2022-09-09T09:44:22;0.33;;;0.30;;
8151;SDS011;4117;53.622;9.958;2022-09-09T09:46:52;0.50;;;0.50;;
8151;SDS011;4117;53.622;9.958;2022-09-09T09:49:31;0.40;;;0.40;;
8151;SDS011;4117;53.622;9.958;2022-09-09T09:51:59;0.33;;;0.33;;
8151;SDS011;4117;53.622;9.958;2022-09-09T09:54:27;0.70;;;0.67;;
8151;SDS011;4117;53.622;9.958;2022-09-09T09:56:55;0.40;;;0.40;;
8151;SDS011;4117;53.622;9.958;2022-09-09T09:59:33;1.70;;;0.57;;
8151;SDS011;4117;53.622;9.958;2022-09-09T10:04:48;0.70;;;0.70;;
8151;SDS011;4117;53.622;9.958;2022-09-09T10:07:17;0.37;;;0.37;;
8151;SDS011;4117;53.622;9.958;2022-09-09T10:09:46;0.57;;;0.57;;
8151;SDS011;4117;53.622;9.958;2022-09-09T10:12:19;0.40;;;0.40;;
8151;SDS011;4117;53.622;9.958;2022-09-09T10:14:57;0.50;;;0.50;;
8151;SDS011;4117;53.622;9.958;2022-09-09T10:17:32;0.83;;;0.60;;
8151;SDS011;4117;53.622;9.958;2022-09-09T10:20:16;1.00;;;0.80;;
8151;SDS011;4117;53.622;9.958;2022-09-09T10:22:50;0.70;;;0.70;;
8151;SDS011;4117;53.622;9.958;2022-09-09T10:25:26;0.53;;;0.53;;
8151;SDS011;4117;53.622;9.958;2022-09-09T10:28:17;0.90;;;0.60;;
8151;SDS011;4117;53.622;9.958;2022-09-09T10:30:56;0.50;;;0.50;;
8151;SDS011;4117;53.622;9.958;2022-09-09T10:33:32;0.50;;;0.50;;
8151;SDS011;4117;53.622;9.958;2022-09-09T10:36:13;0.97;;;0.57;;
8151;SDS011;4117;53.622;9.958;2022-09-09T10:38:44;0.70;;;0.60;;
8151;SDS011;4117;53.622;9.958;2022-09-09T10:41:15;0.70;;;0.70;;
8151;SDS011;4117;53.622;9.958;2022-09-09T10:43:58;1.60;;;0.40;;
8151;SDS011;4117;53.622;9.958;2022-09-09T10:46:40;0.30;;;0.30;;
8151;SDS011;4117;53.622;9.958;2022-09-09T10:49:20;0.57;;;0.40;;
8151;SDS011;4117;53.622;9.958;2022-09-09T10:52:01;0.50;;;0.50;;
8151;SDS011;4117;53.622;9.958;2022-09-09T10:54:39;0.53;;;0.53;;
8151;SDS011;4117;53.622;9.958;2022-09-09T10:57:17;0.60;;;0.60;;
8151;SDS011;4117;53.622;9.958;2022-09-09T10:59:54;0.60;;;0.60;;
8151;SDS011;4117;53.622;9.958;2022-09-09T11:02:26;0.60;;;0.60;;
8151;SDS011;4117;53.622;9.958;2022-09-09T11:04:56;0.63;;;0.63;;
8151;SDS011;4117;53.622;9.958;2022-09-09T11:07:28;0.67;;;0.60;;
8151;SDS011;4117;53.622;9.958;2022-09-09T11:10:05;1.13;;;0.80;;
8151;SDS011;4117;53.622;9.958;2022-09-09T11:12:40;0.70;;;0.70;;
8151;SDS011;4117;53.622;9.958;2022-09-09T11:15:14;0.70;;;0.70;;
8151;SDS011;4117;53.622;9.958;2022-09-09T11:17:46;0.77;;;0.70;;
8151;SDS011;4117;53.622;9.958;2022-09-09T11:20:18;1.80;;;0.57;;
8151;SDS011;4117;53.622;9.958;2022-09-09T11:22:46;1.30;;;0.60;;
8151;SDS011;4117;53.622;9.958;2022-09-09T11:25:18;0.50;;;0.47;;
8151;SDS011;4117;53.622;9.958;2022-09-09T11:27:53;0.67;;;0.43;;
8151;SDS011;4117;53.622;9.958;2022-09-09T11:30:36;1.00;;;0.73;;
8151;SDS011;4117;53.622;9.958;2022-09-09T11:33:27;0.70;;;0.70;;
8151;SDS011;4117;53.622;9.958;2022-09-09T11:36:11;0.50;;;0.47;;
8151;SDS011;4117;53.622;9.958;2022-09-09T11:38:52;0.30;;;0.30;;
8151;SDS011;4117;53.622;9.958;2022-09-09T11:41:22;1.33;;;0.50;;
8151;SDS011;4117;53.622;9.958;2022-09-09T11:43:49;0.40;;;0.40;;
8151;SDS011;4117;53.622;9.958;2022-09-09T11:46:18;0.60;;;0.60;;
8151;SDS011;4117;53.622;9.958;2022-09-09T11:48:57;0.70;;;0.70;;
8151;SDS011;4117;53.622;9.958;2022-09-09T11:51:27;0.47;;;0.47;;
8151;SDS011;4117;53.622;9.958;2022-09-09T11:53:56;1.00;;;0.70;;
8151;SDS011;4117;53.622;9.958;2022-09-09T11:56:27;0.70;;;0.70;;
8151;SDS011;4117;53.622;9.958;2022-09-09T11:58:59;0.50;;;0.50;;
8151;SDS011;4117;53.622;9.958;2022-09-09T12:01:29;0.50;;;0.50;;
8151;SDS011;4117;53.622;9.958;2022-09-09T12:07:03;0.70;;;0.70;;
8151;SDS011;4117;53.622;9.958;2022-09-09T12:09:48;1.53;;;0.90;;
8151;SDS011;4117;53.622;9.958;2022-09-09T12:12:25;0.80;;;0.70;;
8151;SDS011;4117;53.622;9.958;2022-09-09T12:15:00;0.80;;;0.70;;
8151;SDS011;4117;53.622;9.958;2022-09-09T12:17:54;0.60;;;0.60;;
8151;SDS011;4117;53.622;9.958;2022-09-09T12:20:22;0.50;;;0.50;;
8151;SDS011;4117;53.622;9.958;2022-09-09T12:28:39;0.70;;;0.70;;
8151;SDS011;4117;53.622;9.958;2022-09-09T12:31:12;0.50;;;0.50;;
8151;SDS011;4117;53.622;9.958;2022-09-09T12:33:44;0.70;;;0.70;;
8151;SDS011;4117;53.622;9.958;2022-09-09T12:36:12;0.67;;;0.67;;
8151;SDS011;4117;53.622;9.958;2022-09-09T12:38:44;0.57;;;0.50;;
8151;SDS011;4117;53.622;9.958;2022-09-09T12:41:18;0.80;;;0.70;;
8151;SDS011;4117;53.622;9.958;2022-09-09T12:43:47;0.83;;;0.70;;
8151;SDS011;4117;53.622;9.958;2022-09-09T12:46:16;0.50;;;0.50;;
8151;SDS011;4117;53.622;9.958;2022-09-09T12:48:48;0.60;;;0.60;;
8151;SDS011;4117;53.622;9.958;2022-09-09T12:51:17;2.43;;;0.63;;
8151;SDS011;4117;53.622;9.958;2022-09-09T12:53:48;0.90;;;0.90;;
8151;SDS011;4117;53.622;9.958;2022-09-09T12:56:18;0.60;;;0.60;;
8151;SDS011;4117;53.622;9.958;2022-09-09T12:58:47;0.50;;;0.50;;
8151;SDS011;4117;53.622;9.958;2022-09-09T13:01:18;1.13;;;0.93;;
8151;SDS011;4117;53.622;9.958;2022-09-09T13:03:48;0.80;;;0.80;;
8151;SDS011;4117;53.622;9.958;2022-09-09T13:06:18;0.50;;;0.50;;
8151;SDS011;4117;53.622;9.958;2022-09-09T13:08:49;0.80;;;0.80;;
8151;SDS011;4117;53.622;9.958;2022-09-09T13:11:17;1.00;;;0.70;;
8151;SDS011;4117;53.622;9.958;2022-09-09T13:13:50;0.67;;;0.67;;
8151;SDS011;4117;53.622;9.958;2022-09-09T13:16:19;1.60;;;0.87;;
8151;SDS011;4117;53.622;9.958;2022-09-09T13:18:49;1.00;;;0.60;;
8151;SDS011;4117;53.622;9.958;2022-09-09T13:21:16;0.90;;;0.80;;
8151;SDS011;4117;53.622;9.958;2022-09-09T13:23:42;0.93;;;0.80;;
8151;SDS011;4117;53.622;9.958;2022-09-09T13:26:20;0.63;;;0.63;;
8151;SDS011;4117;53.622;9.958;2022-09-09T13:28:49;1.07;;;0.90;;
8151;SDS011;4117;53.622;9.958;2022-09-09T13:31:22;2.40;;;1.17;;
8151;SDS011;4117;53.622;9.958;2022-09-09T13:33:52;1.10;;;0.70;;
8151;SDS011;4117;53.622;9.958;2022-09-09T13:36:27;0.40;;;0.40;;
8151;SDS011;4117;53.622;9.958;2022-09-09T13:38:57;0.60;;;0.50;;
8151;SDS011;4117;53.622;9.958;2022-09-09T13:41:25;0.97;;;0.80;;
8151;SDS011;4117;53.622;9.958;2022-09-09T13:43:56;2.53;;;0.80;;
8151;SDS011;4117;53.622;9.958;2022-09-09T13:46:28;0.70;;;0.57;;
8151;SDS011;4117;53.622;9.958;2022-09-09T13:49:00;0.50;;;0.50;;
8151;SDS011;4117;53.622;9.958;2022-09-09T13:51:33;0.87;;;0.50;;
8151;SDS011;4117;53.622;9.958;2022-09-09T13:54:03;0.40;;;0.30;;
8151;SDS011;4117;53.622;9.958;2022-09-09T13:56:31;0.13;;;0.13;;
8151;SDS011;4117;53.622;9.958;2022-09-09T13:58:58;0.30;;;0.30;;
8151;SDS011;4117;53.622;9.958;2022-09-09T14:01:25;0.40;;;0.40;;
8151;SDS011;4117;53.622;9.958;2022-09-09T14:03:52;0.80;;;0.57;;
8151;SDS011;4117;53.622;9.958;2022-09-09T14:06:19;0.50;;;0.50;;
8151;SDS011;4117;53.622;9.958;2022-09-09T14:08:46;0.50;;;0.50;;
8151;SDS011;4117;53.622;9.958;2022-09-09T14:11:15;0.63;;;0.63;;
8151;SDS011;4117;53.622;9.958;2022-09-09T14:13:42;0.60;;;0.60;;
8151;SDS011;4117;53.622;9.958;2022-09-09T14:16:09;0.80;;;0.70;;
8151;SDS011;4117;53.622;9.958;2022-09-09T14:18:36;0.50;;;0.50;;
8151;SDS011;4117;53.622;9.958;2022-09-09T14:21:04;2.67;;;0.70;;
8151;SDS011;4117;53.622;9.958;2022-09-09T14:23:30;0.60;;;0.50;;
8151;SDS011;4117;53.622;9.958;2022-09-09T14:25:57;1.00;;;0.70;;
8151;SDS011;4117;53.622;9.958;2022-09-09T14:28:25;0.63;;;0.60;;
8151;SDS011;4117;53.622;9.958;2022-09-09T14:30:53;0.67;;;0.50;;
8151;SDS011;4117;53.622;9.958;2022-09-09T14:33:21;1.73;;;1.00;;
8151;SDS011;4117;53.622;9.958;2022-09-09T14:35:48;0.70;;;0.70;;
8151;SDS011;4117;53.622;9.958;2022-09-09T14:38:22;0.73;;;0.73;;
8151;SDS011;4117;53.622;9.958;2022-09-09T14:40:48;0.47;;;0.47;;
8151;SDS011;4117;53.622;9.958;2022-09-09T14:43:15;1.00;;;0.67;;
8151;SDS011;4117;53.622;9.958;2022-09-09T14:45:43;0.63;;;0.57;;
8151;SDS011;4117;53.622;9.958;2022-09-09T14:48:10;0.40;;;0.40;;
8151;SDS011;4117;53.622;9.958;2022-09-09T14:50:37;0.50;;;0.50;;
8151;SDS011;4117;53.622;9.958;2022-09-09T14:53:05;0.50;;;0.50;;
8151;SDS011;4117;53.622;9.958;2022-09-09T14:55:32;0.97;;;0.80;;
8151;SDS011;4117;53.622;9.958;2022-09-09T14:57:58;0.77;;;0.77;;
8151;SDS011;4117;53.622;9.958;2022-09-09T15:00:25;2.10;;;1.00;;
8151;SDS011;4117;53.622;9.958;2022-09-09T15:02:54;0.80;;;0.60;;
8151;SDS011;4117;53.622;9.958;2022-09-09T15:05:21;0.50;;;0.50;;
8151;SDS011;4117;53.622;9.958;2022-09-09T15:07:49;0.87;;;0.60;;
8151;SDS011;4117;53.622;9.958;2022-09-09T15:10:16;0.60;;;0.60;;
8151;SDS011;4117;53.622;9.958;2022-09-09T15:12:43;0.70;;;0.70;;
8151;SDS011;4117;53.622;9.958;2022-09-09T15:15:10;0.50;;;0.50;;
8151;SDS011;4117;53.622;9.958;2022-09-09T15:17:37;0.60;;;0.60;;
8151;SDS011;4117;53.622;9.958;2022-09-09T15:20:06;0.37;;;0.37;;
8151;SDS011;4117;53.622;9.958;2022-09-09T15:22:34;0.57;;;0.47;;
8151;SDS011;4117;53.622;9.958;2022-09-09T15:25:03;0.33;;;0.33;;
8151;SDS011;4117;53.622;9.958;2022-09-09T15:27:30;0.53;;;0.50;;
8151;SDS011;4117;53.622;9.958;2022-09-09T15:29:59;0.37;;;0.37;;
8151;SDS011;4117;53.622;9.958;2022-09-09T15:32:25;0.60;;;0.60;;
8151;SDS011;4117;53.622;9.958;2022-09-09T15:34:53;0.53;;;0.53;;
8151;SDS011;4117;53.622;9.958;2022-09-09T15:37:21;0.30;;;0.30;;
8151;SDS011;4117;53.622;9.958;2022-09-09T15:39:48;1.17;;;0.57;;
8151;SDS011;4117;53.622;9.958;2022-09-09T15:42:15;0.40;;;0.40;;
8151;SDS011;4117;53.622;9.958;2022-09-09T15:44:41;0.80;;;0.53;;
8151;SDS011;4117;53.622;9.958;2022-09-09T15:47:10;0.73;;;0.73;;